Time;durP1;ratioP1;P1;durP2;ratioP2;P2;SDS_P1;SDS_P2;PMS_P1;PMS_P2;Temp;Humidity;BMP_temperature;BMP_pressure;BME280_temperature;BME280_humidity;BME280_pressure;Samples;Min_cycle;Max_cycle;Signal;HPM_P1;HPM_P2
2023/05/06 00:00:22;;;;;;;;;;;;;;;29.90;52.89;100490.66;5121338;27;70163;-37
2023/05/06 00:02:54;;;;;;;;;;;;;;;29.96;53.87;100489.75;5129982;27;65430;-43
2023/05/06 00:05:24;;;;;;;;;;;;;;;30.05;58.87;100504.63;5124607;27;71576;-36
2023/05/06 00:07:54;;;;;;;;;;;;;;;30.13;58.64;100507.03;5106068;27;66348;-36
2023/05/06 00:10:24;;;;;;;;;;;;;;;30.19;58.20;100506.16;5121137;27;70538;-36
2023/05/06 00:12:55;;;;;;;;;;;;;;;30.23;58.99;100502.00;5130559;27;66217;-37
2023/05/06 00:15:25;;;;;;;;;;;;;;;30.33;64.00;100506.03;5116290;27;70303;-37
2023/05/06 00:17:58;;;;;;;;;;;;;;;30.42;71.01;100520.91;5136758;27;66863;-36
2023/05/06 00:20:28;;;;;;;;;;;;;;;30.50;73.40;100520.59;5117089;27;70028;-37
2023/05/06 00:22:59;;;;;;;;;;;;;;;30.58;73.87;100525.72;5114330;27;66664;-37
2023/05/06 00:25:30;;;;;;;;;;;;;;;30.65;75.25;100531.88;5123432;27;70485;-38
2023/05/06 00:28:00;;;;;;;;;;;;;;;30.71;75.28;100535.56;5122869;27;67101;-37
2023/05/06 00:30:30;;;;;;;;;;;;;;;30.76;74.94;100529.44;5124317;27;69877;-38
2023/05/06 00:33:00;;;;;;;;;;;;;;;30.81;76.25;100530.44;5116529;27;66808;-37
2023/05/06 00:35:31;;;;;;;;;;;;;;;30.80;72.49;100530.69;5124319;27;69925;-36
2023/05/06 00:38:11;;;;;;;;;;;;;;;30.80;70.98;100533.41;5120792;27;65840;-37
2023/05/06 00:40:43;;;;;;;;;;;;;;;30.83;70.13;100536.47;5118839;27;70110;-35
2023/05/06 00:43:13;;;;;;;;;;;;;;;30.86;70.06;100543.31;5096755;27;66400;-37
2023/05/06 00:45:44;;;;;;;;;;;;;;;30.88;70.28;100542.03;5122061;27;70576;-38
2023/05/06 00:48:15;;;;;;;;;;;;;;;30.67;69.89;100502.72;5124106;27;66642;-37
2023/05/06 00:50:46;;;;;;;;;;;;;;;30.95;69.67;100547.34;5135062;27;69461;-37
2023/05/06 00:53:18;;;;;;;;;;;;;;;31.04;72.21;100551.41;5114723;27;66733;-38
2023/05/06 00:55:50;;;;;;;;;;;;;;;31.12;71.63;100556.53;5118327;27;70563;-37
2023/05/06 00:58:20;;;;;;;;;;;;;;;31.09;71.12;100565.09;5118467;27;66125;-37
2023/05/06 01:00:51;;;;;;;;;;;;;;;31.10;69.50;100552.38;5119450;27;70367;-36
2023/05/06 01:03:21;;;;;;;;;;;;;;;31.14;69.33;100570.63;5124224;27;66373;-39
2023/05/06 01:05:58;;;;;;;;;;;;;;;31.19;70.46;100558.31;5104094;27;69673;-38
2023/05/06 01:08:31;;;;;;;;;;;;;;;31.61;72.72;100562.69;5126728;27;65960;-37
2023/05/06 01:11:23;;;;;;;;;;;;;;;31.74;73.05;100563.53;5112486;27;70766;-39
2023/05/06 01:13:56;;;;;;;;;;;;;;;31.83;73.52;100571.09;5125730;27;66119;-39
2023/05/06 01:16:29;;;;;;;;;;;;;;;31.84;73.60;100561.06;5124671;27;70340;-40
2023/05/06 01:19:00;;;;;;;;;;;;;;;31.89;73.90;100569.31;5123813;27;65563;-40
2023/05/06 01:21:33;;;;;;;;;;;;;;;31.92;73.32;100563.47;5124811;27;69804;-39
2023/05/06 01:24:03;;;;;;;;;;;;;;;31.93;73.33;100570.56;5119267;27;66499;-40
2023/05/06 01:26:33;;;;;;;;;;;;;;;31.96;73.20;100569.25;5130465;27;69608;-39
2023/05/06 01:29:04;;;;;;;;;;;;;;;31.98;73.12;100567.97;5120139;27;65422;-42
2023/05/06 01:31:41;;;;;;;;;;;;;;;32.02;72.63;100571.03;5110904;27;70158;-42
2023/05/06 01:34:26;;;;;;;;;;;;;;;32.07;72.76;100573.88;5104564;27;66936;-37
2023/05/06 01:36:59;;;;;;;;;;;;;;;32.12;72.67;100584.00;5102411;27;70465;-39
2023/05/06 01:39:30;;;;;;;;;;;;;;;32.13;72.44;100577.53;5122432;27;66996;-40
2023/05/06 01:42:01;;;;;;;;;;;;;;;32.16;72.60;100574.31;5127449;27;69704;-38
2023/05/06 01:44:33;;;;;;;;;;;;;;;32.20;71.95;100580.91;5116025;27;66588;-39
2023/05/06 01:47:04;;;;;;;;;;;;;;;32.24;71.79;100582.13;5099622;27;69532;-42
2023/05/06 01:49:35;;;;;;;;;;;;;;;32.26;71.90;100578.09;5122605;27;66701;-39
2023/05/06 01:52:05;;;;;;;;;;;;;;;32.27;71.99;100576.22;5103991;27;69796;-40
2023/05/06 01:54:35;;;;;;;;;;;;;;;32.37;71.38;100587.28;5089471;27;65410;-40
2023/05/06 01:57:06;;;;;;;;;;;;;;;32.13;72.37;100585.66;5120970;27;69214;-41
2023/05/06 01:59:36;;;;;;;;;;;;;;;32.10;72.02;100586.13;5103402;27;65850;-40
2023/05/06 02:02:07;;;;;;;;;;;;;;;32.10;71.20;100581.53;5100090;27;69778;-38
2023/05/06 02:04:37;;;;;;;;;;;;;;;32.12;70.63;100584.00;5124410;27;66357;-39
2023/05/06 02:07:08;;;;;;;;;;;;;;;32.16;70.28;100577.03;5100775;27;69326;-40
2023/05/06 02:09:39;;;;;;;;;;;;;;;32.18;69.84;100574.91;5116518;27;66306;-40
2023/05/06 02:12:09;;;;;;;;;;;;;;;32.20;69.82;100576.31;5080401;27;70047;-40
2023/05/06 02:14:41;;;;;;;;;;;;;;;32.24;69.47;100573.97;5104287;27;66725;-41
2023/05/06 02:17:11;;;;;;;;;;;;;;;32.26;69.11;100575.38;5086727;27;69850;-41
2023/05/06 02:19:42;;;;;;;;;;;;;;;32.29;69.39;100579.53;5128768;27;66063;-43
2023/05/06 02:22:12;;;;;;;;;;;;;;;32.32;69.40;100583.63;5090655;27;70126;-41
2023/05/06 02:24:42;;;;;;;;;;;;;;;32.35;68.82;100578.56;5101933;27;66557;-40
2023/05/06 02:27:13;;;;;;;;;;;;;;;32.38;68.93;100578.09;5113571;27;70579;-41
2023/05/06 02:29:43;;;;;;;;;;;;;;;32.40;68.85;100575.97;5113686;27;66570;-40
2023/05/06 02:32:13;;;;;;;;;;;;;;;32.43;69.00;100561.91;5125185;27;69847;-40
2023/05/06 02:34:44;;;;;;;;;;;;;;;32.46;69.17;100564.19;5098332;27;65833;-41
2023/05/06 02:37:14;;;;;;;;;;;;;;;32.47;68.49;100565.81;5127051;27;69000;-42
2023/05/06 02:39:44;;;;;;;;;;;;;;;32.52;68.59;100564.28;5113444;27;65411;-40
2023/05/06 02:42:15;;;;;;;;;;;;;;;32.54;68.38;100571.13;5131032;27;70036;-41
2023/05/06 02:44:46;;;;;;;;;;;;;;;32.57;68.33;100567.09;5113829;27;66019;-40
2023/05/06 02:47:15;;;;;;;;;;;;;;;32.60;68.12;100563.94;5133569;27;70011;-41
2023/05/06 02:49:46;;;;;;;;;;;;;;;32.62;68.13;100567.22;5088960;27;66273;-41
2023/05/06 02:52:15;;;;;;;;;;;;;;;32.65;67.90;100564.00;5112484;27;70032;-40
2023/05/06 02:54:45;;;;;;;;;;;;;;;32.67;67.75;100556.44;5119529;27;66890;-40
2023/05/06 02:57:15;;;;;;;;;;;;;;;32.69;67.63;100551.63;5121801;27;69887;-41
2023/05/06 02:59:45;;;;;;;;;;;;;;;32.72;67.28;100556.56;5127469;27;65566;-40
2023/05/06 03:02:15;;;;;;;;;;;;;;;32.75;67.26;100553.34;5109476;27;69644;-40
2023/05/06 03:04:44;;;;;;;;;;;;;;;32.78;67.35;100550.16;5132613;27;66010;-40
2023/05/06 03:07:15;;;;;;;;;;;;;;;32.79;67.04;100540.97;5135088;27;69763;-41
2023/05/06 03:09:45;;;;;;;;;;;;;;;32.82;67.02;100535.03;5124785;27;67696;-40
2023/05/06 03:12:15;;;;;;;;;;;;;;;32.84;66.94;100527.44;5106219;27;70368;-40
2023/05/06 03:14:45;;;;;;;;;;;;;;;32.85;66.50;100540.00;5095160;27;66481;-39
2023/05/06 03:17:15;;;;;;;;;;;;;;;32.89;66.56;100529.44;5123199;27;70368;-40
2023/05/06 03:19:45;;;;;;;;;;;;;;;32.90;66.55;100520.22;5131948;27;65552;-40
2023/05/06 03:22:14;;;;;;;;;;;;;;;32.92;66.15;100512.66;5102371;27;69900;-40
2023/05/06 03:24:46;;;;;;;;;;;;;;;32.92;66.25;100518.91;5111910;27;66874;-39
2023/05/06 03:27:17;;;;;;;;;;;;;;;32.94;66.18;100514.06;5106232;27;70293;-41
2023/05/06 03:29:51;;;;;;;;;;;;;;;32.93;66.26;100503.44;5105831;27;65568;-41
2023/05/06 03:32:23;;;;;;;;;;;;;;;32.96;66.17;100502.13;5096694;27;69699;-41
2023/05/06 03:34:53;;;;;;;;;;;;;;;32.97;65.99;100492.94;5116458;27;66801;-43
2023/05/06 03:37:23;;;;;;;;;;;;;;;32.98;65.83;100489.94;5103731;27;70233;-41
2023/05/06 03:39:56;;;;;;;;;;;;;;;32.98;65.79;100489.94;5094554;27;65413;-40
2023/05/06 03:42:27;;;;;;;;;;;;;;;32.97;65.55;100480.16;5106662;27;70048;-40
2023/05/06 03:44:58;;;;;;;;;;;;;;;33.00;66.28;100481.59;5103338;27;67372;-41
2023/05/06 03:47:31;;;;;;;;;;;;;;;32.98;66.43;100478.25;5096539;27;70326;-39
2023/05/06 03:50:03;;;;;;;;;;;;;;;32.51;66.64;100408.69;5098240;27;66345;-41
2023/05/06 03:52:35;;;;;;;;;;;;;;;32.91;66.66;100473.00;5123386;27;70361;-41
2023/05/06 03:55:06;;;;;;;;;;;;;;;32.91;66.72;100468.38;5104403;27;66064;-42
2023/05/06 03:57:38;;;;;;;;;;;;;;;32.89;66.76;100459.63;5104335;27;70565;-40
2023/05/06 04:00:09;;;;;;;;;;;;;;;32.88;66.97;100458.00;5105431;27;68246;-43
2023/05/06 04:02:47;;;;;;;;;;;;;;;32.90;66.98;100461.31;5098533;27;70594;-40
2023/05/06 04:05:23;;;;;;;;;;;;;;;32.90;67.11;100458.59;5107276;27;66500;-41
2023/05/06 04:07:54;;;;;;;;;;;;;;;32.91;66.90;100457.50;5101319;27;69850;-41
2023/05/06 04:10:24;;;;;;;;;;;;;;;32.94;66.64;100462.44;5102859;27;66447;-41
2023/05/06 04:12:58;;;;;;;;;;;;;;;32.98;66.57;100453.81;5084151;27;69157;-44
2023/05/06 04:15:36;;;;;;;;;;;;;;;32.99;66.61;100452.72;5090778;27;66578;-42
2023/05/06 04:18:09;;;;;;;;;;;;;;;32.99;66.57;100444.56;5096690;27;70500;-41
2023/05/06 04:20:42;;;;;;;;;;;;;;;33.03;66.28;100443.06;5111476;27;66953;-42
2023/05/06 04:23:13;;;;;;;;;;;;;;;33.05;65.97;100440.94;5120266;27;70143;-41
2023/05/06 04:25:49;;;;;;;;;;;;;;;33.07;65.75;100428.75;5100086;27;67249;-41
2023/05/06 04:28:22;;;;;;;;;;;;;;;33.11;65.20;100423.63;5101205;27;70335;-41
2023/05/06 04:30:53;;;;;;;;;;;;;;;33.12;65.31;100422.56;5102122;27;66410;-39
2023/05/06 04:33:30;;;;;;;;;;;;;;;33.16;65.27;100415.56;5102037;27;69853;-41
2023/05/06 04:36:02;;;;;;;;;;;;;;;33.17;65.25;100406.34;5100583;27;66017;-41
2023/05/06 04:38:34;;;;;;;;;;;;;;;33.20;64.97;100407.75;5114179;27;69957;-41
2023/05/06 04:41:05;;;;;;;;;;;;;;;33.22;65.15;100406.44;5097660;27;66363;-41
2023/05/06 04:43:35;;;;;;;;;;;;;;;33.22;65.08;100392.84;5120491;27;70245;-42
2023/05/06 04:46:11;;;;;;;;;;;;;;;33.11;64.95;100369.28;5100462;27;65446;-43
2023/05/06 04:48:43;;;;;;;;;;;;;;;33.32;64.68;100386.72;5118406;27;69611;-40
2023/05/06 04:51:15;;;;;;;;;;;;;;;33.39;64.29;100376.50;5103078;27;65931;-40
2023/05/06 04:53:45;;;;;;;;;;;;;;;33.46;64.07;100370.88;5098183;27;71006;-40
2023/05/06 04:56:15;;;;;;;;;;;;;;;33.49;63.88;100370.38;5120164;27;65730;-40
2023/05/06 04:58:46;;;;;;;;;;;;;;;33.54;63.61;100373.22;5098174;27;70873;-40
2023/05/06 05:01:18;;;;;;;;;;;;;;;33.58;63.41;100366.22;5123498;27;67337;-42
2023/05/06 05:03:48;;;;;;;;;;;;;;;33.62;63.24;100364.63;5100810;27;69298;-39
2023/05/06 05:06:20;;;;;;;;;;;;;;;33.63;63.22;100349.97;5103933;27;65696;-40
2023/05/06 05:08:50;;;;;;;;;;;;;;;33.67;62.88;100351.09;5115242;27;70127;-41
2023/05/06 05:11:24;;;;;;;;;;;;;;;33.70;62.86;100344.31;5103927;27;66239;-40
2023/05/06 05:13:55;;;;;;;;;;;;;;;33.71;62.81;100341.38;5099321;27;70204;-41
2023/05/06 05:16:27;;;;;;;;;;;;;;;33.67;61.71;100334.78;5089521;27;65547;-42
2023/05/06 05:18:58;;;;;;;;;;;;;;;33.52;58.70;100327.25;5097260;27;69943;-41
2023/05/06 05:21:32;;;;;;;;;;;;;;;33.21;55.89;100312.38;5111338;27;65541;-41
2023/05/06 05:24:04;;;;;;;;;;;;;;;33.00;53.44;100315.84;5091368;27;68935;-41
2023/05/06 05:26:34;;;;;;;;;;;;;;;32.75;51.61;100317.06;5088301;27;65737;-40
2023/05/06 05:29:05;;;;;;;;;;;;;;;32.55;50.25;100311.31;5107689;27;69387;-40
2023/05/06 05:31:36;;;;;;;;;;;;;;;32.39;48.57;100296.59;5123550;27;66189;-39
2023/05/06 05:34:06;;;;;;;;;;;;;;;32.21;47.99;100289.50;5100812;27;69828;-39
2023/05/06 05:36:37;;;;;;;;;;;;;;;32.07;46.46;100277.28;5122524;27;66176;-41
2023/05/06 05:39:10;;;;;;;;;;;;;;;31.93;46.17;100282.16;5102320;27;70216;-40
2023/05/06 05:41:44;;;;;;;;;;;;;;;31.78;45.37;100275.34;5090427;27;67049;-40
2023/05/06 05:44:14;;;;;;;;;;;;;;;31.70;44.66;100266.78;5103057;27;70352;-43
2023/05/06 05:46:45;;;;;;;;;;;;;;;31.63;44.38;100264.22;5122679;27;66326;-40
2023/05/06 05:49:18;;;;;;;;;;;;;;;31.57;44.08;100260.56;5101912;27;70163;-43
2023/05/06 05:51:50;;;;;;;;;;;;;;;31.52;43.81;100254.22;5085743;27;66250;-41
2023/05/06 05:54:22;;;;;;;;;;;;;;;31.31;43.11;100239.38;5092671;27;69219;-40
2023/05/06 05:56:51;;;;;;;;;;;;;;;31.25;42.37;100233.03;5099622;27;65683;-39
2023/05/06 05:59:22;;;;;;;;;;;;;;;31.25;42.67;100226.78;5108562;27;69200;-38
2023/05/06 06:01:54;;;;;;;;;;;;;;;31.24;41.98;100236.00;5104173;27;66651;-40
2023/05/06 06:04:25;;;;;;;;;;;;;;;31.23;42.09;100235.19;5126583;27;70684;-41
2023/05/06 06:07:00;;;;;;;;;;;;;;;31.23;41.63;100228.91;5104675;27;65231;-38
2023/05/06 06:09:34;;;;;;;;;;;;;;;31.22;41.32;100225.38;5083505;27;69403;-37
2023/05/06 06:12:05;;;;;;;;;;;;;;;31.23;40.93;100215.34;5111281;27;66085;-38
2023/05/06 06:14:39;;;;;;;;;;;;;;;31.22;41.21;100211.00;5060824;27;69749;-38
2023/05/06 06:17:10;;;;;;;;;;;;;;;31.24;40.61;100206.19;5105689;27;65546;-40
2023/05/06 06:19:40;;;;;;;;;;;;;;;31.25;40.28;100202.41;5107056;27;69733;-38
2023/05/06 06:22:10;;;;;;;;;;;;;;;31.27;40.31;100192.97;5093168;27;66583;-38
2023/05/06 06:24:39;;;;;;;;;;;;;;;31.26;40.14;100190.50;5103083;27;70723;-39
2023/05/06 06:27:09;;;;;;;;;;;;;;;31.24;39.80;100179.09;5106536;27;65743;-38
2023/05/06 06:29:39;;;;;;;;;;;;;;;31.26;40.31;100180.50;5123886;27;68606;-38
2023/05/06 06:32:09;;;;;;;;;;;;;;;31.22;39.55;100179.31;5090285;27;66832;-40
2023/05/06 06:34:40;;;;;;;;;;;;;;;31.25;39.42;100172.59;5130797;27;70584;-40
2023/05/06 06:37:10;;;;;;;;;;;;;;;31.27;39.47;100165.06;5102486;27;65552;-41
2023/05/06 06:39:40;;;;;;;;;;;;;;;31.30;39.50;100170.00;5134188;27;70337;-39
2023/05/06 06:42:10;;;;;;;;;;;;;;;31.29;38.93;100161.06;5119558;27;66343;-39
2023/05/06 06:44:49;;;;;;;;;;;;;;;31.33;39.36;100164.09;5109230;27;70619;-39
2023/05/06 06:47:25;;;;;;;;;;;;;;;31.36;38.68;100147.38;5123548;27;67304;-38
2023/05/06 06:49:55;;;;;;;;;;;;;;;31.40;39.03;100156.69;5122467;27;70101;-38
2023/05/06 06:52:25;;;;;;;;;;;;;;;31.41;38.95;100147.50;5117711;27;66009;-40
2023/05/06 06:54:55;;;;;;;;;;;;;;;31.46;38.63;100147.59;5118331;27;69413;-38
2023/05/06 06:57:24;;;;;;;;;;;;;;;31.44;38.65;100141.59;5114167;27;66618;-37
2023/05/06 06:59:54;;;;;;;;;;;;;;;31.46;38.34;100131.31;5114107;27;69373;-37
2023/05/06 07:02:24;;;;;;;;;;;;;;;31.50;38.41;100134.38;5108713;27;66942;-38
2023/05/06 07:04:54;;;;;;;;;;;;;;;31.44;38.57;100130.75;5113491;27;70038;-38
2023/05/06 07:07:24;;;;;;;;;;;;;;;31.45;38.63;100128.84;5104001;27;66113;-38
2023/05/06 07:09:54;;;;;;;;;;;;;;;31.47;37.92;100122.13;5113111;27;70002;-42
2023/05/06 07:12:25;;;;;;;;;;;;;;;31.45;38.53;100121.53;5123389;27;66792;-40
2023/05/06 07:14:55;;;;;;;;;;;;;;;31.44;37.65;100117.19;5116715;27;69257;-39
2023/05/06 07:17:25;;;;;;;;;;;;;;;31.45;37.85;100113.41;5123635;27;65142;-40
2023/05/06 07:19:54;;;;;;;;;;;;;;;31.46;37.90;100109.66;5117096;27;70254;-41
2023/05/06 07:22:25;;;;;;;;;;;;;;;31.50;37.75;100105.38;5122938;27;66893;-38
2023/05/06 07:24:54;;;;;;;;;;;;;;;31.49;37.40;100098.31;5100082;27;69199;-40
2023/05/06 07:27:26;;;;;;;;;;;;;;;31.54;38.01;100101.13;5118386;27;66015;-40
2023/05/06 07:29:56;;;;;;;;;;;;;;;31.53;37.27;100094.03;5121435;27;70261;-38
2023/05/06 07:32:26;;;;;;;;;;;;;;;31.51;37.49;100090.78;5117685;27;66602;-38
2023/05/06 07:34:55;;;;;;;;;;;;;;;31.52;37.08;100086.16;5122287;27;70274;-38
2023/05/06 07:37:25;;;;;;;;;;;;;;;31.53;37.49;100083.19;5080452;27;66862;-39
2023/05/06 07:39:56;;;;;;;;;;;;;;;31.53;37.19;100077.78;5089169;27;69857;-37
2023/05/06 07:42:26;;;;;;;;;;;;;;;31.55;37.01;100078.34;5099923;27;66461;-37
2023/05/06 07:44:56;;;;;;;;;;;;;;;31.55;37.46;100070.22;5124062;27;69219;-36
2023/05/06 07:47:30;;;;;;;;;;;;;;;31.56;37.09;100068.34;5121865;27;67017;-40
2023/05/06 07:50:00;;;;;;;;;;;;;;;31.53;36.67;100066.94;5128029;27;70599;-40
2023/05/06 07:52:30;;;;;;;;;;;;;;;31.57;36.88;100051.03;5123226;27;66043;-38
2023/05/06 07:55:00;;;;;;;;;;;;;;;31.56;36.75;100057.50;5128713;27;68984;-41
2023/05/06 07:57:30;;;;;;;;;;;;;;;31.51;37.06;100060.94;5102873;27;66894;-37
2023/05/06 08:00:00;;;;;;;;;;;;;;;31.56;37.21;100054.78;5123791;27;70302;-38
2023/05/06 08:02:43;;;;;;;;;;;;;;;31.54;36.55;100044.19;5123617;27;66735;-36
2023/05/06 08:05:13;;;;;;;;;;;;;;;31.58;37.11;100039.91;5121424;27;70404;-37
2023/05/06 08:07:43;;;;;;;;;;;;;;;31.58;37.36;100030.97;5130229;27;66854;-36
2023/05/06 08:10:13;;;;;;;;;;;;;;;31.65;38.05;100041.63;5123878;27;70718;-42
2023/05/06 08:12:43;;;;;;;;;;;;;;;31.62;37.63;100034.81;5124733;27;66216;-40
2023/05/06 08:15:13;;;;;;;;;;;;;;;31.67;37.96;100039.50;5101232;27;69395;-42
2023/05/06 08:17:43;;;;;;;;;;;;;;;31.62;37.39;100048.38;5121862;27;65928;-43
2023/05/06 08:20:13;;;;;;;;;;;;;;;31.65;37.64;100047.91;5104393;27;69004;-42
2023/05/06 08:22:43;;;;;;;;;;;;;;;31.66;37.10;100035.16;5124940;27;65790;-41
2023/05/06 08:25:13;;;;;;;;;;;;;;;31.67;37.25;100040.31;5122088;27;71182;-41
2023/05/06 08:27:42;;;;;;;;;;;;;;;31.66;37.34;100032.47;5116340;27;66971;-41
2023/05/06 08:30:12;;;;;;;;;;;;;;;31.66;37.47;100027.03;5124898;27;70500;-42
2023/05/06 08:32:42;;;;;;;;;;;;;;;31.66;37.68;100029.75;5119486;27;65436;-41
2023/05/06 08:35:12;;;;;;;;;;;;;;;31.65;37.82;100031.66;5122984;27;69749;-43
2023/05/06 08:37:42;;;;;;;;;;;;;;;31.63;37.74;100022.09;5121987;27;65827;-41
2023/05/06 08:40:18;;;;;;;;;;;;;;;31.67;37.62;100015.09;5121473;27;70301;-42
2023/05/06 08:42:48;;;;;;;;;;;;;;;31.69;39.55;100013.81;5118537;27;66251;-40
2023/05/06 08:45:18;;;;;;;;;;;;;;;31.75;39.74;100003.84;5104311;27;70098;-41
2023/05/06 08:47:48;;;;;;;;;;;;;;;31.78;39.51;100003.34;5115590;27;66088;-41
2023/05/06 08:50:18;;;;;;;;;;;;;;;31.79;40.04;100005.03;5118867;27;70333;-42
2023/05/06 08:52:48;;;;;;;;;;;;;;;31.80;39.76;100001.22;5121980;27;66617;-41
2023/05/06 08:55:18;;;;;;;;;;;;;;;31.77;39.75;99997.13;5122883;27;69794;-41
2023/05/06 08:57:49;;;;;;;;;;;;;;;31.79;40.04;99991.47;5113209;27;65685;-40
2023/05/06 09:00:19;;;;;;;;;;;;;;;31.84;39.96;100002.38;5124845;27;70566;-41
2023/05/06 09:02:49;;;;;;;;;;;;;;;31.90;41.69;99995.97;5125091;27;66391;-41
2023/05/06 09:05:19;;;;;;;;;;;;;;;32.15;44.74;99992.00;5098096;27;69838;-42
2023/05/06 09:07:49;;;;;;;;;;;;;;;32.40;46.32;99978.78;5120178;27;66734;-42
2023/05/06 09:10:19;;;;;;;;;;;;;;;32.64;46.03;99994.84;5118929;27;70804;-41
2023/05/06 09:12:52;;;;;;;;;;;;;;;32.85;50.55;99985.84;5121344;27;65666;-44
2023/05/06 09:15:26;;;;;;;;;;;;;;;33.13;54.86;99986.72;5095768;27;70342;-42
2023/05/06 09:17:55;;;;;;;;;;;;;;;33.44;53.86;99997.84;5123443;27;67234;-41
2023/05/06 09:20:25;;;;;;;;;;;;;;;33.61;54.62;99998.56;5120525;27;70603;-42
2023/05/06 09:22:55;;;;;;;;;;;;;;;33.83;54.42;99997.66;5121347;27;66613;-42
2023/05/06 09:25:25;;;;;;;;;;;;;;;34.03;52.55;99986.88;5103105;27;70402;-41
2023/05/06 09:28:07;;;;;;;;;;;;;;;34.15;53.21;99992.97;5129269;27;65951;-43
2023/05/06 09:30:39;;;;;;;;;;;;;;;34.26;52.97;99989.22;5118409;27;69202;-42
2023/05/06 09:33:10;;;;;;;;;;;;;;;34.30;52.25;99994.13;5121671;27;66219;-42
2023/05/06 09:35:41;;;;;;;;;;;;;;;34.38;51.89;99980.00;5123125;27;70103;-41
2023/05/06 09:38:11;;;;;;;;;;;;;;;34.45;51.28;99975.16;5132830;27;66535;-43
2023/05/06 09:40:42;;;;;;;;;;;;;;;34.53;50.80;99988.25;5121187;27;69210;-41
2023/05/06 09:43:14;;;;;;;;;;;;;;;34.61;50.97;99985.03;5117592;27;66405;-41
2023/05/06 09:45:45;;;;;;;;;;;;;;;34.66;50.52;99987.78;5136057;27;70349;-44
2023/05/06 09:48:15;;;;;;;;;;;;;;;34.73;50.68;99986.72;5104647;27;66310;-43
2023/05/06 09:50:46;;;;;;;;;;;;;;;34.78;51.53;99986.72;5127173;27;69948;-43
2023/05/06 09:53:18;;;;;;;;;;;;;;;34.78;53.71;99975.84;5110189;27;66482;-43
2023/05/06 09:55:48;;;;;;;;;;;;;;;34.82;53.02;99990.53;5135874;27;68754;-42
2023/05/06 09:58:21;;;;;;;;;;;;;;;34.84;53.55;99994.63;5135771;27;65582;-42
2023/05/06 10:00:52;;;;;;;;;;;;;;;34.87;55.09;99988.66;5134260;27;70739;-43
2023/05/06 10:03:23;;;;;;;;;;;;;;;34.86;56.40;99992.47;5138559;27;66499;-40
2023/05/06 10:05:56;;;;;;;;;;;;;;;34.86;57.97;99986.22;5130268;27;70305;-42
2023/05/06 10:08:26;;;;;;;;;;;;;;;34.84;58.24;99989.19;5135677;27;66315;-42
2023/05/06 10:10:57;;;;;;;;;;;;;;;34.81;58.35;99999.81;5129594;27;69698;-41
2023/05/06 10:13:28;;;;;;;;;;;;;;;34.79;59.08;100013.69;5126912;27;66886;-41
2023/05/06 10:16:01;;;;;;;;;;;;;;;34.78;59.91;100017.50;5131414;27;70355;-42
2023/05/06 10:18:31;;;;;;;;;;;;;;;34.79;61.10;100023.78;5129364;27;66378;-41
2023/05/06 10:21:02;;;;;;;;;;;;;;;34.83;61.84;100014.00;5131213;27;70440;-43
2023/05/06 10:23:38;;;;;;;;;;;;;;;34.81;61.29;100021.59;5131408;27;65938;-43
2023/05/06 10:26:10;;;;;;;;;;;;;;;34.89;61.32;100024.63;5129069;27;70357;-43
2023/05/06 10:28:41;;;;;;;;;;;;;;;34.97;60.65;100023.28;5130062;27;66427;-42
2023/05/06 10:31:12;;;;;;;;;;;;;;;35.02;60.29;100039.66;5135230;27;70344;-44
2023/05/06 10:33:45;;;;;;;;;;;;;;;35.08;60.18;100038.63;5133509;27;66859;-46
2023/05/06 10:36:15;;;;;;;;;;;;;;;35.14;61.11;100044.91;5127852;27;70429;-43
2023/05/06 10:38:48;;;;;;;;;;;;;;;35.18;60.68;100045.97;5129943;27;66613;-44
2023/05/06 10:41:20;;;;;;;;;;;;;;;35.21;60.74;100061.78;5133814;27;69611;-44
2023/05/06 10:43:55;;;;;;;;;;;;;;;35.23;61.61;100067.00;5131839;27;66768;-44
2023/05/06 10:46:26;;;;;;;;;;;;;;;35.26;62.14;100067.25;5118877;27;69826;-44
2023/05/06 10:49:09;;;;;;;;;;;;;;;35.25;62.15;100070.28;5134915;27;65768;-43
2023/05/06 10:52:10;;;;;;;;;;;;;;;35.29;62.84;100071.34;5105158;27;70183;-43
2023/05/06 10:54:49;;;;;;;;;;;;;;;35.31;62.61;100069.19;5136420;27;66620;-43
2023/05/06 10:57:25;;;;;;;;;;;;;;;35.31;62.86;100064.53;5136064;27;70000;-43
2023/05/06 10:59:55;;;;;;;;;;;;;;;35.32;63.01;100059.91;5135460;27;66404;-44
2023/05/06 11:02:29;;;;;;;;;;;;;;;35.32;63.19;100057.19;5128931;27;69273;-44
2023/05/06 11:05:00;;;;;;;;;;;;;;;35.33;63.14;100061.56;5133759;27;66617;-42
2023/05/06 11:07:30;;;;;;;;;;;;;;;35.33;62.89;100067.03;5138118;27;69482;-42
2023/05/06 11:10:04;;;;;;;;;;;;;;;35.33;63.33;100072.47;5133707;27;66770;-42
2023/05/06 11:12:54;;;;;;;;;;;;;;;35.32;62.94;100066.16;5136035;27;70568;-43
2023/05/06 11:15:38;;;;;;;;;;;;;;;35.33;63.22;100067.03;5074932;27;67020;-44
2023/05/06 11:18:23;;;;;;;;;;;;;;;35.31;63.64;100061.00;5129275;27;70035;-43
2023/05/06 11:21:01;;;;;;;;;;;;;;;35.27;63.06;100062.63;5125808;27;65306;-42
2023/05/06 11:23:50;;;;;;;;;;;;;;;35.26;62.75;100061.00;5135285;27;69760;-41
2023/05/06 11:26:21;;;;;;;;;;;;;;;35.26;63.52;100063.72;5111790;27;66198;-42
2023/05/06 11:28:51;;;;;;;;;;;;;;;35.24;64.54;100065.88;5134498;27;69100;-43
2023/05/06 11:31:21;;;;;;;;;;;;;;;35.18;65.34;100073.25;5134322;27;66852;-43
2023/05/06 11:33:53;;;;;;;;;;;;;;;35.08;66.26;100063.13;5114531;27;69632;-40
2023/05/06 11:36:23;;;;;;;;;;;;;;;34.88;64.26;100072.03;5130685;27;65091;-42
2023/05/06 11:38:55;;;;;;;;;;;;;;;34.62;59.92;100068.38;5128808;27;69926;-42
2023/05/06 11:41:25;;;;;;;;;;;;;;;34.31;57.08;100061.94;5136459;27;65322;-43
2023/05/06 11:43:55;;;;;;;;;;;;;;;33.91;53.87;100036.06;5129434;27;69934;-44
2023/05/06 11:46:28;;;;;;;;;;;;;;;33.76;51.58;100066.66;5133847;27;65983;-44
2023/05/06 11:48:59;;;;;;;;;;;;;;;33.54;51.07;100076.81;5134291;27;69185;-44
2023/05/06 11:51:31;;;;;;;;;;;;;;;33.34;49.70;100078.22;5132006;27;66536;-44
2023/05/06 11:54:05;;;;;;;;;;;;;;;33.15;48.45;100077.78;5132774;27;69883;-46
2023/05/06 11:56:45;;;;;;;;;;;;;;;32.98;46.27;100081.59;5132064;27;66794;-43
2023/05/06 11:59:17;;;;;;;;;;;;;;;32.83;45.32;100096.63;5133801;27;69049;-43
2023/05/06 12:01:47;;;;;;;;;;;;;;;32.66;45.88;100101.31;5132326;27;66962;-44
2023/05/06 12:04:18;;;;;;;;;;;;;;;32.55;44.88;100107.69;5136233;27;70893;-42
2023/05/06 12:06:48;;;;;;;;;;;;;;;32.42;44.23;100112.34;5125857;27;66637;-43
2023/05/06 12:09:21;;;;;;;;;;;;;;;32.33;43.90;100113.84;5129176;27;69298;-43
2023/05/06 12:11:51;;;;;;;;;;;;;;;32.23;43.36;100113.66;5132356;27;66864;-41
2023/05/06 12:14:22;;;;;;;;;;;;;;;32.14;42.81;100117.88;5134320;27;70398;-42
2023/05/06 12:16:52;;;;;;;;;;;;;;;32.02;42.72;100124.22;5128121;27;66414;-43
2023/05/06 12:19:23;;;;;;;;;;;;;;;31.95;42.23;100128.16;5132951;27;69437;-42
2023/05/06 12:21:54;;;;;;;;;;;;;;;31.90;43.09;100123.44;5107571;27;64271;-41
2023/05/06 12:24:30;;;;;;;;;;;;;;;31.87;42.48;100137.47;5121057;27;69683;-41
2023/05/06 12:27:00;;;;;;;;;;;;;;;31.80;42.85;100136.81;5120809;27;65370;-40
2023/05/06 12:29:31;;;;;;;;;;;;;;;31.76;42.70;100141.06;5114261;27;70492;-44
2023/05/06 12:32:08;;;;;;;;;;;;;;;31.71;41.94;100138.28;5123469;27;65358;-42
2023/05/06 12:34:39;;;;;;;;;;;;;;;31.66;42.26;100132.78;5100394;27;69477;-41
2023/05/06 12:37:09;;;;;;;;;;;;;;;31.65;42.34;100144.66;5120601;27;65570;-42
2023/05/06 12:39:39;;;;;;;;;;;;;;;31.58;42.12;100151.06;5098107;27;69969;-45
2023/05/06 12:42:20;;;;;;;;;;;;;;;31.54;42.13;100149.91;5129658;27;66046;-44
2023/05/06 12:44:52;;;;;;;;;;;;;;;31.28;41.56;100128.75;5103245;27;72152;-42
2023/05/06 12:47:23;;;;;;;;;;;;;;;31.42;41.13;100157.25;5119586;27;66889;-42
2023/05/06 12:49:57;;;;;;;;;;;;;;;31.34;40.80;100165.72;5121584;27;70027;-41
2023/05/06 12:52:28;;;;;;;;;;;;;;;31.27;41.07;100170.47;5131429;27;66134;-45
2023/05/06 12:55:00;;;;;;;;;;;;;;;31.23;41.35;100182.84;5118477;27;70414;-43
2023/05/06 12:57:30;;;;;;;;;;;;;;;31.19;40.43;100178.97;5131103;27;67529;-44
2023/05/06 13:00:00;;;;;;;;;;;;;;;31.12;40.51;100190.78;5123782;27;69454;-44